Time;durP1;ratioP1;P1;durP2;ratioP2;P2;SDS_P1;SDS_P2;PMS_P1;PMS_P2;Temp;Humidity;BMP_temperature;BMP_pressure;BME280_temperature;BME280_humidity;BME280_pressure;Samples;Min_cycle;Max_cycle;Signal;HPM_P1;HPM_P2
2021/08/24 00:01:16;;;;;;;3.05;2.00;;;16.50;79.30;;;;;;5131839;27;20033;-79
2021/08/24 00:03:41;;;;;;;3.83;2.47;;;16.50;78.70;;;;;;5133239;27;20022;-78
2021/08/24 00:06:07;;;;;;;2.95;2.50;;;16.40;78.50;;;;;;5135585;27;20379;-79
2021/08/24 00:08:35;;;;;;;2.60;2.28;;;16.40;78.50;;;;;;5135418;27;20341;-79
2021/08/24 00:11:01;;;;;;;2.60;2.28;;;16.40;78.80;;;;;;5135489;27;20058;-79
2021/08/24 00:13:27;;;;;;;3.08;2.42;;;16.30;78.80;;;;;;5135593;27;20019;-79
2021/08/24 00:15:54;;;;;;;2.42;2.20;;;16.30;78.80;;;;;;5135546;27;20055;-79
2021/08/24 00:18:20;;;;;;;3.03;2.25;;;16.30;78.60;;;;;;5135349;27;20020;-79
2021/08/24 00:20:50;;;;;;;4.63;2.80;;;16.20;78.50;;;;;;5135575;27;20022;-80
2021/08/24 00:23:19;;;;;;;2.50;2.20;;;16.20;78.50;;;;;;5135674;27;20027;-79
2021/08/24 00:25:51;;;;;;;3.45;2.45;;;16.10;78.20;;;;;;5135580;27;20020;-78
2021/08/24 00:28:18;;;;;;;2.30;2.10;;;16.10;78.00;;;;;;5130976;27;20029;-79
2021/08/24 00:30:44;;;;;;;2.45;2.25;;;16.00;77.80;;;;;;5135313;27;20125;-79
2021/08/24 00:33:10;;;;;;;3.47;2.53;;;15.90;77.90;;;;;;5135436;27;20497;-79
2021/08/24 00:35:40;;;;;;;5.22;2.50;;;15.90;78.60;;;;;;5135422;27;20563;-79
2021/08/24 00:38:08;;;;;;;3.70;2.42;;;15.90;79.40;;;;;;5135107;27;20031;-79
2021/08/24 00:40:34;;;;;;;3.75;2.60;;;15.80;79.90;;;;;;5134904;27;20019;-79
2021/08/24 00:43:00;;;;;;;2.72;1.90;;;15.70;80.40;;;;;;5135098;27;20490;-78
2021/08/24 00:45:26;;;;;;;4.78;2.50;;;15.70;80.80;;;;;;5134822;27;20019;-78
2021/08/24 00:47:52;;;;;;;2.90;2.17;;;15.70;81.20;;;;;;5134645;27;20379;-78
2021/08/24 00:50:34;;;;;;;4.70;2.30;;;15.70;81.00;;;;;;5134650;27;20055;-77
2021/08/24 00:53:03;;;;;;;3.72;2.42;;;15.70;81.00;;;;;;5134705;27;20047;-78
2021/08/24 00:55:29;;;;;;;3.92;2.30;;;15.60;81.00;;;;;;5134916;27;20122;-77
2021/08/24 00:57:59;;;;;;;4.07;2.80;;;15.50;81.40;;;;;;5134701;27;20055;-77
2021/08/24 01:00:27;;;;;;;4.93;2.40;;;15.50;81.80;;;;;;5134494;27;20029;-78
2021/08/24 01:03:08;;;;;;;2.50;2.30;;;15.40;81.80;;;;;;5134508;27;20030;-78
2021/08/24 01:05:35;;;;;;;3.47;2.45;;;15.40;82.10;;;;;;5134545;27;20542;-78
2021/08/24 01:08:12;;;;;;;3.70;2.67;;;15.40;82.30;;;;;;5134207;27;20038;-78
2021/08/24 01:11:17;;;;;;;3.45;2.40;;;15.30;82.10;;;;;;5134255;27;20031;-77
2021/08/24 01:14:00;;;;;;;2.70;2.20;;;15.30;82.10;;;;;;5133693;27;20028;-77
2021/08/24 01:16:44;;;;;;;6.35;2.17;;;15.30;82.00;;;;;;5134006;27;20387;-78
2021/08/24 01:19:37;;;;;;;2.55;2.17;;;15.20;82.20;;;;;;5134294;27;20019;-78
2021/08/24 01:22:21;;;;;;;4.50;2.30;;;15.20;82.20;;;;;;5134224;27;20027;-78
2021/08/24 01:25:02;;;;;;;3.30;1.73;;;15.10;82.10;;;;;;5135355;27;20020;-78
2021/08/24 01:27:34;;;;;;;3.40;1.92;;;15.00;81.90;;;;;;5134189;27;20382;-78
2021/08/24 01:30:27;;;;;;;4.15;2.60;;;15.00;82.30;;;;;;5133991;27;20076;-78
2021/08/24 01:33:36;;;;;;;5.30;2.28;;;15.00;82.50;;;;;;5134081;27;20032;-78
2021/08/24 01:36:18;;;;;;;2.95;2.33;;;14.90;82.40;;;;;;5111777;27;20036;-78
2021/08/24 01:38:49;;;;;;;2.47;2.13;;;14.90;82.50;;;;;;5133868;27;20034;-77
2021/08/24 01:41:20;;;;;;;1.95;1.83;;;14.80;82.50;;;;;;5133789;27;20023;-78
2021/08/24 01:43:53;;;;;;;3.85;2.70;;;14.80;82.60;;;;;;5133766;27;20083;-77
2021/08/24 01:46:25;;;;;;;3.17;2.28;;;14.80;82.80;;;;;;5133900;27;20174;-77
2021/08/24 01:48:55;;;;;;;5.05;2.25;;;14.70;82.80;;;;;;5133578;27;20023;-77
2021/08/24 01:51:25;;;;;;;3.67;2.15;;;14.70;83.00;;;;;;5133642;27;20121;-77
2021/08/24 01:53:59;;;;;;;3.20;2.25;;;14.70;83.10;;;;;;5133194;27;20054;-77
2021/08/24 01:56:31;;;;;;;8.60;2.30;;;14.70;83.30;;;;;;5134417;27;20462;-77
2021/08/24 01:59:16;;;;;;;3.83;2.22;;;14.60;83.50;;;;;;5133480;27;20031;-78
2021/08/24 02:01:53;;;;;;;3.22;2.10;;;14.50;83.70;;;;;;5134298;27;20076;-77
2021/08/24 02:04:29;;;;;;;4.88;2.47;;;14.50;83.90;;;;;;5135325;27;20028;-77
2021/08/24 02:06:57;;;;;;;4.10;2.60;;;14.40;84.00;;;;;;5129170;27;20467;-77
2021/08/24 02:09:32;;;;;;;4.63;2.22;;;14.40;84.00;;;;;;5134445;27;20083;-78
2021/08/24 02:11:59;;;;;;;4.28;2.38;;;14.40;83.80;;;;;;5132866;27;20038;-78
2021/08/24 02:14:26;;;;;;;3.00;2.30;;;14.40;83.70;;;;;;5133143;27;20034;-78
2021/08/24 02:16:52;;;;;;;5.38;2.63;;;14.40;83.60;;;;;;5132854;27;20126;-78
2021/08/24 02:19:30;;;;;;;6.18;2.40;;;14.30;83.60;;;;;;5132943;27;20023;-78
2021/08/24 02:22:11;;;;;;;4.32;2.38;;;14.20;83.60;;;;;;5133179;27;20139;-78
2021/08/24 02:24:42;;;;;;;2.28;2.08;;;14.20;83.90;;;;;;5133003;27;20019;-78
2021/08/24 02:27:11;;;;;;;5.03;2.40;;;14.10;83.80;;;;;;5132196;27;20034;-78
2021/08/24 02:29:37;;;;;;;2.33;2.13;;;14.10;84.10;;;;;;5132968;27;20061;-77
2021/08/24 02:32:09;;;;;;;2.20;2.00;;;14.10;84.10;;;;;;5132909;27;20095;-78
2021/08/24 02:35:04;;;;;;;3.05;2.17;;;14.10;84.10;;;;;;5132615;27;20050;-77
2021/08/24 02:37:39;;;;;;;2.60;2.40;;;14.10;84.00;;;;;;5132950;27;20023;-77
2021/08/24 02:40:22;;;;;;;2.65;2.45;;;14.10;83.80;;;;;;5132434;27;20031;-78
2021/08/24 02:43:04;;;;;;;6.38;2.92;;;14.00;83.80;;;;;;5132875;27;20034;-77
2021/08/24 02:45:35;;;;;;;5.43;2.80;;;14.00;84.10;;;;;;5131055;27;20027;-77
2021/08/24 02:48:05;;;;;;;2.85;2.28;;;13.90;84.10;;;;;;5132920;27;20023;-77
2021/08/24 02:50:31;;;;;;;3.63;2.17;;;13.90;84.10;;;;;;5132555;27;20047;-77
2021/08/24 02:52:57;;;;;;;2.53;2.13;;;13.90;83.90;;;;;;5132334;27;20096;-77
2021/08/24 02:55:23;;;;;;;2.72;1.95;;;13.90;83.80;;;;;;5132454;27;20052;-77
2021/08/24 02:57:49;;;;;;;2.78;2.08;;;13.80;83.50;;;;;;5132356;27;20033;-77
2021/08/24 03:00:15;;;;;;;4.00;2.42;;;13.80;83.40;;;;;;5132848;27;20501;-76
2021/08/24 03:02:41;;;;;;;4.38;2.20;;;13.80;83.50;;;;;;5132709;27;20027;-77
2021/08/24 03:05:08;;;;;;;7.47;2.30;;;13.70;83.50;;;;;;5131984;27;20047;-77
2021/08/24 03:07:37;;;;;;;4.03;2.20;;;13.70;83.40;;;;;;5132362;27;20027;-77
2021/08/24 03:10:10;;;;;;;3.45;2.40;;;13.70;83.40;;;;;;5132424;27;20031;-77
2021/08/24 03:13:02;;;;;;;2.78;2.30;;;13.70;83.30;;;;;;5132028;27;20027;-77
2021/08/24 03:15:51;;;;;;;4.30;2.17;;;13.60;83.30;;;;;;5085201;28;20032;-77
2021/08/24 03:18:21;;;;;;;3.65;2.50;;;13.50;83.60;;;;;;5129540;27;20031;-78
2021/08/24 03:20:52;;;;;;;2.58;2.00;;;13.50;83.60;;;;;;5132710;27;20027;-78
2021/08/24 03:23:19;;;;;;;3.20;2.50;;;13.50;83.70;;;;;;5132237;27;20110;-78
2021/08/24 03:25:49;;;;;;;6.00;2.83;;;13.50;83.70;;;;;;5132567;27;20072;-76
2021/08/24 03:28:17;;;;;;;6.20;2.85;;;13.40;83.70;;;;;;5132887;27;20020;-77
2021/08/24 03:30:44;;;;;;;7.65;3.10;;;13.40;83.90;;;;;;5133243;27;20027;-76
2021/08/24 03:33:12;;;;;;;4.35;3.00;;;13.40;83.60;;;;;;5132577;27;20030;-77
2021/08/24 03:35:37;;;;;;;10.07;5.53;;;13.40;83.80;;;;;;5131849;27;20384;-76
2021/08/24 03:38:03;;;;;;;12.13;6.70;;;13.40;84.30;;;;;;5133148;27;20023;-76
2021/08/24 03:40:29;;;;;;;13.30;5.28;;;13.30;84.70;;;;;;5145790;27;20092;-77
2021/08/24 03:42:56;;;;;;;7.15;4.13;;;13.30;85.10;;;;;;5137254;27;20414;-77
2021/08/24 03:45:21;;;;;;;7.05;4.13;;;13.30;85.20;;;;;;5136641;27;20023;-76
2021/08/24 03:47:47;;;;;;;4.60;3.45;;;13.20;85.10;;;;;;5142274;27;20107;-77
2021/08/24 03:50:12;;;;;;;11.38;3.65;;;13.20;85.00;;;;;;5153416;27;20050;-76
2021/08/24 03:52:38;;;;;;;7.63;3.17;;;13.20;84.90;;;;;;5154085;27;20055;-76
2021/08/24 03:55:05;;;;;;;4.80;3.17;;;13.10;84.90;;;;;;5162315;27;20027;-77
2021/08/24 03:57:31;;;;;;;5.53;3.38;;;13.10;85.80;;;;;;5141916;27;20026;-76
2021/08/24 03:59:56;;;;;;;6.07;3.08;;;13.10;85.00;;;;;;5141874;27;20319;-76
2021/08/24 04:02:24;;;;;;;5.00;2.83;;;13.10;84.90;;;;;;5143972;27;20055;-76
2021/08/24 04:04:50;;;;;;;8.05;4.15;;;13.10;84.80;;;;;;5161083;27;20015;-77
2021/08/24 04:07:15;;;;;;;5.57;3.60;;;13.10;84.80;;;;;;5140870;27;20167;-76
2021/08/24 04:09:41;;;;;;;5.55;3.50;;;13.10;84.90;;;;;;5140190;27;20485;-77
2021/08/24 04:12:07;;;;;;;3.97;3.10;;;13.10;85.70;;;;;;5139715;27;20031;-77
2021/08/24 04:14:33;;;;;;;3.95;3.10;;;13.10;84.60;;;;;;5139649;27;20023;-77
2021/08/24 04:16:58;;;;;;;6.25;3.00;;;13.10;84.70;;;;;;5139733;27;20110;-76
2021/08/24 04:19:24;;;;;;;3.88;2.67;;;13.10;84.50;;;;;;5139741;27;20378;-77
2021/08/24 04:21:50;;;;;;;3.60;2.67;;;13.00;84.40;;;;;;5139535;27;20026;-77
2021/08/24 04:24:15;;;;;;;3.75;2.67;;;13.00;84.50;;;;;;5139229;27;20034;-77
2021/08/24 04:26:41;;;;;;;2.95;2.42;;;13.00;84.50;;;;;;5138784;27;20018;-76
2021/08/24 04:29:07;;;;;;;3.97;2.63;;;12.90;84.50;;;;;;5139015;27;20022;-77
2021/08/24 04:31:36;;;;;;;4.53;2.60;;;12.90;84.30;;;;;;5139565;27;20048;-77
2021/08/24 04:34:02;;;;;;;5.13;2.65;;;12.80;84.20;;;;;;5139757;27;20019;-76
2021/08/24 04:36:28;;;;;;;3.40;2.47;;;12.80;84.00;;;;;;5139670;27;20019;-76
2021/08/24 04:38:54;;;;;;;5.57;3.33;;;12.80;83.80;;;;;;5139569;27;20023;-76
2021/08/24 04:41:20;;;;;;;7.57;3.25;;;12.80;84.10;;;;;;5139207;27;20023;-76
2021/08/24 04:43:45;;;;;;;5.53;3.33;;;12.80;84.40;;;;;;5138632;27;20482;-76
2021/08/24 04:46:11;;;;;;;4.28;2.97;;;12.80;84.40;;;;;;5138590;27;20439;-75
2021/08/24 04:48:36;;;;;;;4.45;3.70;;;12.80;84.30;;;;;;5157296;27;20034;-76
2021/08/24 04:51:03;;;;;;;5.70;3.05;;;12.70;84.40;;;;;;5138013;27;20026;-77
2021/08/24 04:53:29;;;;;;;7.28;3.38;;;12.70;84.40;;;;;;5121182;27;20095;-77
2021/08/24 04:55:56;;;;;;;8.63;3.50;;;12.70;84.30;;;;;;5121470;27;20593;-77
2021/08/24 04:58:21;;;;;;;5.32;3.42;;;12.60;84.20;;;;;;5157572;27;20114;-77
2021/08/24 05:00:47;;;;;;;4.07;2.70;;;12.70;84.50;;;;;;5121080;27;20058;-77
2021/08/24 05:03:13;;;;;;;4.88;3.08;;;12.70;84.40;;;;;;5138080;27;20437;-77
2021/08/24 05:05:39;;;;;;;2.72;2.30;;;12.70;84.20;;;;;;5137981;27;20563;-78
2021/08/24 05:08:04;;;;;;;3.60;2.78;;;12.80;84.00;;;;;;5137814;27;20027;-78
2021/08/24 05:10:30;;;;;;;4.00;2.53;;;12.80;83.60;;;;;;5137830;27;20023;-78
2021/08/24 05:12:56;;;;;;;4.05;2.70;;;12.90;83.30;;;;;;5137971;27;20023;-78
2021/08/24 05:15:22;;;;;;;2.90;2.13;;;13.00;82.90;;;;;;5137803;27;20539;-78
2021/08/24 05:17:49;;;;;;;6.72;2.90;;;13.00;82.70;;;;;;5138325;27;20071;-77
2021/08/24 05:20:16;;;;;;;3.47;2.60;;;13.00;82.60;;;;;;5120674;27;20031;-78
2021/08/24 05:22:42;;;;;;;4.05;2.47;;;13.10;82.50;;;;;;5141827;27;20043;-78
2021/08/24 05:25:09;;;;;;;4.28;2.53;;;13.20;82.10;;;;;;5127502;27;20027;-78
2021/08/24 05:27:35;;;;;;;5.63;2.72;;;13.20;81.80;;;;;;5120841;27;20023;-78
2021/08/24 05:30:02;;;;;;;3.45;2.50;;;13.20;81.50;;;;;;5121035;27;20027;-78
2021/08/24 05:32:28;;;;;;;7.85;2.55;;;13.20;81.00;;;;;;5137469;27;20041;-78
2021/08/24 05:34:54;;;;;;;5.40;2.65;;;13.20;81.40;;;;;;5137377;27;20113;-78
2021/08/24 05:37:19;;;;;;;3.63;2.38;;;13.20;81.50;;;;;;5155961;27;20029;-76
2021/08/24 05:39:45;;;;;;;4.10;2.40;;;13.30;81.50;;;;;;5146196;22;20156;-78
2021/08/24 05:42:10;;;;;;;7.50;2.40;;;13.40;81.30;;;;;;5116866;27;20023;-78
2021/08/24 05:44:36;;;;;;;3.83;2.65;;;13.50;81.10;;;;;;5116814;27;20027;-78
2021/08/24 05:47:02;;;;;;;3.72;2.53;;;13.50;80.50;;;;;;5116853;27;20019;-79
2021/08/24 05:49:32;;;;;;;5.78;2.80;;;13.50;80.50;;;;;;5116903;27;20050;-79
2021/08/24 05:51:59;;;;;;;7.03;2.97;;;13.50;80.50;;;;;;5116586;27;20171;-78
2021/08/24 05:54:24;;;;;;;3.38;2.47;;;13.50;80.30;;;;;;5116613;27;20020;-78
2021/08/24 05:56:50;;;;;;;3.60;2.40;;;13.50;80.50;;;;;;5116554;27;20079;-78
2021/08/24 05:59:16;;;;;;;5.40;2.72;;;13.60;80.70;;;;;;5116565;27;20352;-77
2021/08/24 06:01:41;;;;;;;2.33;2.10;;;13.70;80.90;;;;;;5115725;27;20123;-78
2021/08/24 06:04:07;;;;;;;3.35;2.50;;;13.70;80.70;;;;;;5116453;27;20090;-78
2021/08/24 06:06:36;;;;;;;3.58;2.80;;;13.90;80.60;;;;;;5116550;27;20498;-77
2021/08/24 06:09:04;;;;;;;6.78;3.10;;;14.00;80.40;;;;;;5116482;27;20459;-77
2021/08/24 06:11:33;;;;;;;3.92;2.42;;;14.20;80.20;;;;;;5116128;27;20395;-77
2021/08/24 06:14:01;;;;;;;6.20;3.00;;;14.20;79.80;;;;;;5116051;27;20031;-77
2021/08/24 06:16:27;;;;;;;3.05;2.13;;;14.30;79.40;;;;;;5134641;27;20025;-77
2021/08/24 06:18:53;;;;;;;3.15;2.10;;;14.40;79.30;;;;;;5134641;27;20027;-76
2021/08/24 06:21:19;;;;;;;3.97;2.72;;;14.50;79.40;;;;;;5116153;27;20042;-77
2021/08/24 06:23:46;;;;;;;3.95;2.30;;;14.50;79.10;;;;;;5116247;27;20087;-75
2021/08/24 06:26:11;;;;;;;4.43;2.47;;;14.50;79.10;;;;;;5116160;27;20057;-76
2021/08/24 06:28:37;;;;;;;4.60;2.30;;;14.50;79.50;;;;;;5116175;27;20420;-77
2021/08/24 06:31:04;;;;;;;5.22;2.85;;;14.50;79.60;;;;;;5115967;27;20064;-78
2021/08/24 06:33:34;;;;;;;7.05;2.67;;;14.60;79.70;;;;;;5116211;27;20046;-77
2021/08/24 06:36:00;;;;;;;4.28;2.63;;;14.60;79.50;;;;;;5115641;27;20424;-75
2021/08/24 06:38:26;;;;;;;4.75;3.42;;;14.70;79.40;;;;;;5115683;27;20122;-75
2021/08/24 06:40:52;;;;;;;7.93;3.45;;;14.80;79.60;;;;;;5115784;27;20047;-74
2021/08/24 06:43:17;;;;;;;4.88;3.08;;;14.90;79.00;;;;;;5116186;27;20372;-75
2021/08/24 06:45:43;;;;;;;8.75;3.25;;;15.00;78.60;;;;;;5117827;27;20033;-80
2021/08/24 06:48:10;;;;;;;6.88;2.72;;;15.10;82.10;;;;;;5098544;27;20486;-78
2021/08/24 06:50:38;;;;;;;4.50;3.30;;;15.30;81.30;;;;;;5115795;27;20479;-81
2021/08/24 06:53:04;;;;;;;7.78;3.35;;;15.50;79.70;;;;;;5115777;28;20099;-80
2021/08/24 06:55:32;;;;;;;4.35;3.00;;;15.60;78.90;;;;;;5116208;28;20452;-81
2021/08/24 06:58:00;;;;;;;6.38;3.30;;;15.80;79.30;;;;;;5115773;28;20027;-81
2021/08/24 07:00:27;;;;;;;7.55;3.63;;;16.00;77.80;;;;;;5099471;28;20030;-81
2021/08/24 07:02:54;;;;;;;4.93;3.22;;;16.00;76.40;;;;;;5116574;28;20019;-82
2021/08/24 07:05:23;;;;;;;4.90;3.15;;;16.10;76.60;;;;;;5117411;28;20034;-83
2021/08/24 07:07:48;;;;;;;5.45;2.83;;;16.20;76.40;;;;;;5128409;28;20040;-82
2021/08/24 07:10:15;;;;;;;11.18;3.92;;;16.30;75.70;;;;;;5140565;28;20015;-83
2021/08/24 07:12:42;;;;;;;5.43;3.17;;;16.20;74.50;;;;;;5141159;27;20049;-83
2021/08/24 07:15:10;;;;;;;10.98;4.10;;;16.30;76.30;;;;;;5110433;27;20031;-79
2021/08/24 07:17:37;;;;;;;6.43;3.67;;;16.30;75.20;;;;;;5160751;27;20041;-82
2021/08/24 07:20:04;;;;;;;7.32;3.78;;;16.40;75.00;;;;;;5134196;27;20027;-82
2021/08/24 07:22:30;;;;;;;5.57;3.30;;;16.60;74.80;;;;;;5127874;27;20456;-83
2021/08/24 07:24:56;;;;;;;5.90;3.33;;;16.40;74.00;;;;;;5122167;27;20050;-84
2021/08/24 07:27:21;;;;;;;7.30;3.50;;;16.50;75.00;;;;;;5120183;27;20060;-83
2021/08/24 07:29:49;;;;;;;6.10;3.35;;;16.60;74.60;;;;;;5120409;27;20023;-82
2021/08/24 07:32:15;;;;;;;9.52;3.88;;;16.70;73.70;;;;;;5120357;27;20398;-82
2021/08/24 07:34:41;;;;;;;4.00;2.92;;;16.90;73.40;;;;;;5121509;27;20015;-84
2021/08/24 07:37:10;;;;;;;7.75;3.80;;;16.90;73.00;;;;;;5119483;27;20034;-82
2021/08/24 07:39:36;;;;;;;4.78;3.03;;;17.10;72.50;;;;;;5119769;27;20183;-83
2021/08/24 07:42:03;;;;;;;7.75;3.65;;;17.10;72.20;;;;;;5119704;27;20019;-83
2021/08/24 07:44:33;;;;;;;5.55;2.92;;;17.20;71.90;;;;;;5102316;27;20027;-82
2021/08/24 07:47:01;;;;;;;6.22;3.42;;;17.30;71.50;;;;;;5119230;27;20027;-84
2021/08/24 07:49:29;;;;;;;7.00;3.78;;;17.30;71.30;;;;;;5119464;27;20031;-83
2021/08/24 07:51:55;;;;;;;7.00;3.60;;;17.40;71.00;;;;;;5101977;27;20039;-83
2021/08/24 07:54:22;;;;;;;5.75;3.40;;;17.50;70.40;;;;;;5118922;27;20023;-82
2021/08/24 07:56:49;;;;;;;8.00;4.38;;;17.40;70.20;;;;;;5137638;27;20110;-84
2021/08/24 07:59:21;;;;;;;6.63;3.67;;;17.40;70.40;;;;;;5101850;27;20397;-83
2021/08/24 08:01:46;;;;;;;7.07;4.13;;;17.50;70.50;;;;;;5118639;27;20087;-84
2021/08/24 08:04:15;;;;;;;4.50;3.17;;;17.60;70.30;;;;;;5101890;27;20468;-81
2021/08/24 08:06:46;;;;;;;6.13;3.75;;;17.60;70.00;;;;;;5138311;27;20023;-83
2021/08/24 08:09:13;;;;;;;5.88;4.15;;;17.90;69.50;;;;;;5118094;27;20053;-83
2021/08/24 08:12:00;;;;;;;7.15;4.20;;;18.00;68.80;;;;;;5119960;27;20392;-82
2021/08/24 08:14:27;;;;;;;6.13;3.25;;;18.00;68.30;;;;;;5118295;27;20057;-82
2021/08/24 08:16:53;;;;;;;8.40;4.85;;;17.90;68.40;;;;;;5102516;27;20027;-81
2021/08/24 08:19:23;;;;;;;6.80;4.53;;;17.80;67.70;;;;;;5138009;27;20027;-80
2021/08/24 08:22:00;;;;;;;7.80;4.45;;;17.30;69.60;;;;;;5140008;27;20031;-80
2021/08/24 08:24:26;;;;;;;9.35;4.43;;;16.90;71.40;;;;;;5117745;27;20502;-80
2021/08/24 08:26:51;;;;;;;9.20;4.65;;;16.50;72.50;;;;;;5117845;27;20031;-79
2021/08/24 08:29:17;;;;;;;8.32;4.93;;;16.20;73.50;;;;;;5118282;27;20486;-79
2021/08/24 08:31:45;;;;;;;8.82;5.18;;;15.90;75.00;;;;;;5117765;27;20058;-79
2021/08/24 08:34:11;;;;;;;8.27;5.47;;;15.60;75.90;;;;;;5118273;27;20027;-79
2021/08/24 08:36:37;;;;;;;10.68;5.30;;;15.60;78.20;;;;;;5115784;27;20582;-78
2021/08/24 08:39:04;;;;;;;9.32;5.85;;;15.30;78.70;;;;;;5106931;27;20409;-79
2021/08/24 08:41:35;;;;;;;8.00;4.80;;;15.20;80.00;;;;;;5109825;27;20059;-79
2021/08/24 08:44:21;;;;;;;9.35;5.32;;;15.20;80.10;;;;;;5118256;27;20026;-79
2021/08/24 08:46:57;;;;;;;12.75;5.60;;;15.30;80.00;;;;;;5117966;27;20031;-79
2021/08/24 08:49:36;;;;;;;9.00;5.30;;;15.30;80.00;;;;;;5118015;27;20045;-79
2021/08/24 08:52:18;;;;;;;8.35;5.10;;;15.40;79.60;;;;;;5117768;27;20057;-79
2021/08/24 08:54:56;;;;;;;7.03;4.70;;;15.20;79.40;;;;;;5117610;27;20057;-79
2021/08/24 08:57:37;;;;;;;7.15;4.93;;;15.30;80.00;;;;;;5118074;27;20513;-79
2021/08/24 09:00:09;;;;;;;7.45;5.13;;;15.30;79.90;;;;;;5135871;27;20502;-80
2021/08/24 09:03:01;;;;;;;5.32;4.10;;;15.30;80.00;;;;;;5135774;27;20015;-80
2021/08/24 09:05:28;;;;;;;6.63;4.60;;;15.50;79.80;;;;;;5093947;27;20031;-79
2021/08/24 09:07:58;;;;;;;5.85;4.28;;;15.70;79.90;;;;;;5117244;27;20030;-79
2021/08/24 09:10:47;;;;;;;7.47;4.68;;;15.70;79.10;;;;;;5117657;27;20027;-79
2021/08/24 09:13:26;;;;;;;5.05;3.67;;;15.80;78.30;;;;;;5116918;27;20035;-80
2021/08/24 09:16:18;;;;;;;6.65;4.00;;;15.90;77.60;;;;;;5117424;27;20438;-79
2021/08/24 09:19:12;;;;;;;5.07;3.28;;;16.10;77.30;;;;;;5117391;27;20024;-80
2021/08/24 09:21:47;;;;;;;8.00;4.15;;;16.30;76.90;;;;;;5114775;27;20035;-79
2021/08/24 09:24:21;;;;;;;7.53;4.30;;;16.40;76.60;;;;;;5117238;27;20019;-79
2021/08/24 09:27:03;;;;;;;7.68;4.80;;;16.50;75.80;;;;;;5116982;27;20436;-80
2021/08/24 09:29:36;;;;;;;8.77;4.47;;;16.50;75.90;;;;;;5117398;27;20054;-79
2021/08/24 09:32:06;;;;;;;14.88;4.95;;;16.30;74.90;;;;;;5117011;27;20061;-79
2021/08/24 09:34:39;;;;;;;8.90;4.70;;;16.20;75.90;;;;;;5117111;27;20023;-78
2021/08/24 09:37:05;;;;;;;7.40;4.50;;;16.00;76.80;;;;;;5100619;27;20027;-79
2021/08/24 09:39:51;;;;;;;7.63;4.90;;;16.00;77.20;;;;;;5116715;27;20043;-80
2021/08/24 09:42:57;;;;;;;5.63;3.85;;;16.00;77.50;;;;;;5116803;27;20031;-78
2021/08/24 09:45:28;;;;;;;6.70;5.05;;;16.00;77.60;;;;;;5083016;27;20111;-78
2021/08/24 09:48:15;;;;;;;7.47;5.20;;;16.10;77.50;;;;;;5116445;27;20608;-78
2021/08/24 09:50:43;;;;;;;9.77;5.15;;;16.00;77.10;;;;;;5116444;27;20022;-78
2021/08/24 09:53:28;;;;;;;6.78;5.30;;;16.00;77.40;;;;;;5116184;27;20031;-78
2021/08/24 09:55:54;;;;;;;11.45;5.88;;;15.90;78.30;;;;;;5116338;27;20494;-77
2021/08/24 09:58:35;;;;;;;8.38;4.80;;;15.90;78.60;;;;;;5116187;27;20027;-78
2021/08/24 10:01:10;;;;;;;15.15;4.80;;;16.00;78.40;;;;;;5116272;27;20428;-78
2021/08/24 10:03:48;;;;;;;9.77;4.53;;;16.20;78.20;;;;;;5116198;27;20038;-78
2021/08/24 10:06:40;;;;;;;7.72;5.15;;;16.40;77.60;;;;;;5116207;27;20031;-78
2021/08/24 10:09:30;;;;;;;10.40;4.88;;;16.80;76.80;;;;;;5116035;27;20125;-78
2021/08/24 10:12:27;;;;;;;7.13;5.13;;;17.10;74.60;;;;;;5115828;27;20060;-78
2021/08/24 10:14:54;;;;;;;9.98;4.47;;;17.10;74.10;;;;;;5115866;27;20027;-78
2021/08/24 10:17:36;;;;;;;6.70;4.93;;;17.10;73.20;;;;;;5115962;27;20031;-77
2021/08/24 10:20:45;;;;;;;9.25;4.65;;;17.10;73.20;;;;;;5116033;27;20023;-78
2021/08/24 10:23:20;;;;;;;7.57;4.65;;;17.20;73.50;;;;;;5094480;27;20035;-78
2021/08/24 10:25:52;;;;;;;7.95;5.10;;;17.30;73.60;;;;;;5100301;27;20095;-79
2021/08/24 10:28:38;;;;;;;8.40;5.20;;;17.50;73.30;;;;;;5134395;27;20027;-78
2021/08/24 10:31:31;;;;;;;7.10;3.55;;;17.60;72.10;;;;;;5116082;27;20035;-78
2021/08/24 10:33:59;;;;;;;4.65;3.67;;;17.60;72.10;;;;;;5115453;27;20030;-79
2021/08/24 10:36:33;;;;;;;5.95;4.25;;;17.60;72.20;;;;;;5115873;27;20019;-78
2021/08/24 10:39:16;;;;;;;6.68;4.43;;;17.60;72.10;;;;;;5115331;27;20019;-78
2021/08/24 10:42:03;;;;;;;5.10;3.70;;;17.70;72.10;;;;;;5115603;27;20060;-79
2021/08/24 10:44:46;;;;;;;6.28;4.30;;;17.70;72.30;;;;;;5115952;27;20080;-78
2021/08/24 10:47:46;;;;;;;7.43;3.72;;;17.80;72.40;;;;;;5115494;27;20475;-78
2021/08/24 10:50:57;;;;;;;7.57;3.70;;;17.80;72.30;;;;;;5115445;27;20536;-77
2021/08/24 10:53:28;;;;;;;5.63;4.10;;;17.90;72.30;;;;;;5115613;28;20031;-78
2021/08/24 10:56:06;;;;;;;6.03;3.90;;;17.80;72.10;;;;;;5115676;27;20119;-78
2021/08/24 10:58:59;;;;;;;6.80;4.03;;;17.80;72.20;;;;;;5114134;28;20156;-77
2021/08/24 11:01:52;;;;;;;6.80;4.20;;;17.70;71.90;;;;;;5102578;28;20031;-78
2021/08/24 11:04:45;;;;;;;7.75;4.20;;;17.60;72.30;;;;;;5134044;28;20019;-78
2021/08/24 11:07:15;;;;;;;6.28;4.13;;;17.50;73.00;;;;;;5133637;28;20023;-78
2021/08/24 11:10:13;;;;;;;6.85;4.00;;;17.10;73.60;;;;;;5115469;28;20532;-78
2021/08/24 11:12:56;;;;;;;7.25;4.15;;;17.10;74.50;;;;;;5118210;28;20043;-77
2021/08/24 11:15:29;;;;;;;6.45;4.45;;;17.10;74.70;;;;;;5138334;28;20098;-78
2021/08/24 11:18:22;;;;;;;9.25;4.72;;;17.00;75.00;;;;;;5119024;28;20011;-77
2021/08/24 11:20:54;;;;;;;7.45;4.00;;;17.10;75.20;;;;;;5115444;28;20037;-77
2021/08/24 11:23:42;;;;;;;5.47;3.92;;;17.20;75.00;;;;;;5115840;28;20030;-77
2021/08/24 11:26:20;;;;;;;6.95;3.90;;;17.50;74.50;;;;;;5115356;28;20028;-78
2021/08/24 11:28:55;;;;;;;7.82;4.20;;;17.80;74.30;;;;;;5115660;28;20438;-77
2021/08/24 11:31:37;;;;;;;6.50;3.97;;;18.00;73.20;;;;;;5127062;28;20075;-78
2021/08/24 11:34:29;;;;;;;9.05;4.05;;;18.10;72.20;;;;;;5112819;28;20054;-79
2021/08/24 11:37:20;;;;;;;8.85;4.97;;;18.30;71.70;;;;;;5116163;28;20475;-77
2021/08/24 11:40:09;;;;;;;7.05;4.30;;;18.20;71.30;;;;;;5115045;28;20051;-78
2021/08/24 11:42:45;;;;;;;7.18;4.13;;;18.00;71.50;;;;;;5115058;28;20034;-78
2021/08/24 11:45:23;;;;;;;8.00;4.65;;;17.80;72.20;;;;;;5116124;28;20079;-78
2021/08/24 11:48:11;;;;;;;5.85;4.57;;;17.60;72.70;;;;;;5115291;28;20122;-78
2021/08/24 11:51:05;;;;;;;6.00;4.00;;;17.60;74.10;;;;;;5098275;28;20031;-78
2021/08/24 11:53:52;;;;;;;6.90;4.53;;;17.60;73.50;;;;;;5133122;28;20069;-77
2021/08/24 11:56:26;;;;;;;5.00;3.88;;;17.60;73.30;;;;;;5115589;28;20058;-77
2021/08/24 11:58:52;;;;;;;6.93;4.15;;;17.60;73.60;;;;;;5115351;28;20019;-79
2021/08/24 12:01:20;;;;;;;9.02;4.93;;;17.50;73.80;;;;;;5119663;27;20428;-79
2021/08/24 12:03:58;;;;;;;4.28;3.65;;;17.50;74.60;;;;;;5119474;27;20020;-79
2021/08/24 12:06:47;;;;;;;6.13;4.32;;;17.50;74.50;;;;;;5118927;27;20495;-80
2021/08/24 12:09:35;;;;;;;8.15;4.55;;;17.70;74.30;;;;;;5118482;27;20475;-80
2021/08/24 12:12:01;;;;;;;5.60;4.53;;;17.90;73.80;;;;;;5118644;27;20073;-79
2021/08/24 12:14:35;;;;;;;6.30;4.60;;;18.00;72.90;;;;;;5118436;27;20054;-79
2021/08/24 12:17:08;;;;;;;9.40;4.63;;;18.10;72.30;;;;;;5117684;27;20038;-79
2021/08/24 12:19:36;;;;;;;8.02;4.70;;;18.40;71.70;;;;;;5118559;27;20387;-79
2021/08/24 12:22:25;;;;;;;9.15;4.47;;;18.40;70.30;;;;;;5118537;27;20075;-79
2021/08/24 12:24:57;;;;;;;5.95;4.55;;;18.60;70.20;;;;;;5109905;27;20034;-79
2021/08/24 12:27:31;;;;;;;5.30;4.30;;;18.70;69.90;;;;;;5120716;27;20023;-78
2021/08/24 12:30:28;;;;;;;5.75;4.60;;;18.70;70.30;;;;;;5118029;27;20059;-77
2021/08/24 12:32:53;;;;;;;6.88;4.70;;;18.50;70.90;;;;;;5064595;27;20036;-78
2021/08/24 12:35:40;;;;;;;11.15;5.15;;;18.50;70.90;;;;;;5118100;27;20015;-78
2021/08/24 12:38:07;;;;;;;6.65;3.75;;;18.50;70.20;;;;;;5118146;27;20087;-78
2021/08/24 12:40:36;;;;;;;7.10;4.57;;;18.70;70.10;;;;;;5136602;27;20039;-78
2021/08/24 12:43:01;;;;;;;6.15;5.15;;;18.80;69.80;;;;;;5117628;27;20022;-79
2021/08/24 12:45:29;;;;;;;6.38;4.50;;;18.70;69.70;;;;;;5117987;27;20027;-78
2021/08/24 12:48:21;;;;;;;10.10;4.95;;;18.60;69.40;;;;;;5100536;27;20023;-80
2021/08/24 12:51:04;;;;;;;7.30;4.93;;;18.40;69.90;;;;;;5135901;27;20031;-78
2021/08/24 12:53:30;;;;;;;5.80;4.43;;;18.00;71.60;;;;;;5117425;27;20019;-78
2021/08/24 12:55:57;;;;;;;5.85;4.55;;;18.00;72.40;;;;;;5117187;27;20449;-79
2021/08/24 12:58:29;;;;;;;9.95;4.75;;;18.00;72.70;;;;;;5117040;27;20058;-78
2021/08/24 13:01:07;;;;;;;9.75;4.80;;;18.10;72.40;;;;;;5135812;27;20027;-79
2021/08/24 13:03:36;;;;;;;6.22;4.63;;;18.10;72.80;;;;;;5117535;27;20050;-79
2021/08/24 13:06:25;;;;;;;6.38;4.20;;;18.20;72.40;;;;;;5117706;27;20030;-78
2021/08/24 13:08:53;;;;;;;7.80;4.47;;;18.40;71.90;;;;;;5117308;27;20054;-78
2021/08/24 13:11:32;;;;;;;7.43;4.63;;;18.40;70.90;;;;;;5116856;27;20482;-78
2021/08/24 13:14:06;;;;;;;6.20;4.38;;;18.30;70.70;;;;;;5117830;27;20075;-79